Aviation Digital Data Service (ADDS)

Output produced by TAFs form (2054 UTC 24 September 2016)
found at http://aviationweather.gov/adds/tafs/
 
KRIL 241738Z 2418/2518 08009KT P6SM -SHRA OVC025 
     FM241900 30007KT P6SM VCSH BKN050 
     FM242300 17007KT P6SM SCT080 
     FM250200 07006KT P6SM FEW090 
     FM251000 VRB03KT P6SM FEW150